createdAt,value
2023-05-02T00:01:48.770Z,14.21
2023-05-02T00:03:50.426Z,14.22
2023-05-02T00:05:52.070Z,14.17
2023-05-02T00:07:54.326Z,14.10
2023-05-02T00:09:55.891Z,14.07
2023-05-02T00:11:57.594Z,14.09
2023-05-02T00:13:59.207Z,14.13
2023-05-02T00:16:00.791Z,14.16
2023-05-02T00:18:02.545Z,14.14
2023-05-02T00:20:05.037Z,14.17
2023-05-02T00:22:06.610Z,14.19
2023-05-02T00:24:08.198Z,14.07
2023-05-02T00:26:10.226Z,14.08
2023-05-02T00:28:11.839Z,14.08
2023-05-02T00:30:14.243Z,14.05
2023-05-02T00:32:15.829Z,14.06
2023-05-02T00:34:17.425Z,14.14
2023-05-02T00:36:20.254Z,14.19
2023-05-02T00:38:21.951Z,14.20
2023-05-02T00:40:23.585Z,14.18
2023-05-02T00:42:25.201Z,14.14
2023-05-02T00:44:26.822Z,14.15
2023-05-02T00:46:28.520Z,14.07
2023-05-02T00:48:30.371Z,14.08
2023-05-02T00:50:32.904Z,14.11
2023-05-02T00:52:34.535Z,14.11
2023-05-02T00:54:39.361Z,14.16
2023-05-02T00:56:41.101Z,14.18
2023-05-02T00:58:43.580Z,14.18
2023-05-02T01:01:24.882Z,14.16
2023-05-02T01:03:50.707Z,14.10
2023-05-02T01:06:08.799Z,14.10
2023-05-02T01:08:37.365Z,14.07
2023-05-02T01:10:57.453Z,13.95
2023-05-02T01:13:02.306Z,13.93
2023-05-02T01:15:07.827Z,13.96
2023-05-02T01:17:12.383Z,13.90
2023-05-02T01:19:22.561Z,13.87
2023-05-02T01:21:24.330Z,13.91
2023-05-02T01:23:34.825Z,13.91
2023-05-02T01:26:02.496Z,13.90
2023-05-02T01:28:26.059Z,13.71
2023-05-02T01:30:29.550Z,13.64
2023-05-02T01:32:33.617Z,13.49
2023-05-02T01:34:37.449Z,13.38
2023-05-02T01:36:46.710Z,13.41
2023-05-02T01:38:50.070Z,13.42
2023-05-02T01:40:52.107Z,13.45
2023-05-02T01:42:54.443Z,13.15
2023-05-02T01:44:56.900Z,13.15
2023-05-02T01:47:00.004Z,13.07
2023-05-02T01:49:03.741Z,13.13
2023-05-02T01:51:05.775Z,13.18
2023-05-02T01:53:08.415Z,13.09
2023-05-02T01:55:13.173Z,13.06
2023-05-02T01:57:15.823Z,13.04
2023-05-02T01:59:20.283Z,12.94
2023-05-02T02:01:25.038Z,12.90
2023-05-02T02:03:28.731Z,12.98
2023-05-02T02:05:31.021Z,12.97
2023-05-02T02:07:32.642Z,12.96
2023-05-02T02:09:34.527Z,12.99
2023-05-02T02:12:09.905Z,13.03
2023-05-02T02:14:19.007Z,12.95
2023-05-02T02:16:25.123Z,12.88
2023-05-02T02:18:28.143Z,12.88
2023-05-02T02:20:30.174Z,12.85
2023-05-02T02:22:35.017Z,12.85
2023-05-02T02:24:38.013Z,12.82
2023-05-02T02:26:39.727Z,12.85
2023-05-02T02:28:41.361Z,12.77
2023-05-02T02:30:42.993Z,12.75
2023-05-02T02:32:44.610Z,12.72
2023-05-02T02:34:46.268Z,12.69
2023-05-02T02:36:58.300Z,12.74
2023-05-02T02:39:20.688Z,12.80
2023-05-02T02:41:28.642Z,12.87
2023-05-02T02:44:08.106Z,12.79
2023-05-02T02:46:43.891Z,12.77
2023-05-02T02:48:48.649Z,12.68
2023-05-02T02:50:59.637Z,12.73
2023-05-02T02:53:10.065Z,12.73
2023-05-02T02:55:29.758Z,12.72
2023-05-02T02:57:41.378Z,12.69
2023-05-02T02:59:49.998Z,12.74
2023-05-02T03:02:02.713Z,12.84
2023-05-02T03:04:06.617Z,12.77
2023-05-02T03:06:08.149Z,12.85
2023-05-02T03:08:10.108Z,12.85
2023-05-02T03:10:11.972Z,12.88
2023-05-02T03:12:13.833Z,12.91
2023-05-02T03:14:15.506Z,12.87
2023-05-02T03:16:33.017Z,12.88
2023-05-02T03:18:34.756Z,12.85
2023-05-02T03:20:36.378Z,12.89
2023-05-02T03:22:38.479Z,12.94
2023-05-02T03:24:40.147Z,12.98
2023-05-02T03:26:41.771Z,13.04
2023-05-02T03:28:46.640Z,13.04
2023-05-02T03:30:48.293Z,13.04
2023-05-02T03:32:50.006Z,13.02
2023-05-02T03:34:51.632Z,13.06
2023-05-02T03:36:53.249Z,13.11
2023-05-02T03:38:54.905Z,13.17
2023-05-02T03:40:59.127Z,13.19
2023-05-02T03:43:00.830Z,13.23
2023-05-02T03:45:02.439Z,13.31
2023-05-02T03:47:04.227Z,13.31
2023-05-02T03:49:06.020Z,13.37
2023-05-02T03:51:10.691Z,13.41
2023-05-02T03:53:12.397Z,13.43
2023-05-02T03:55:14.070Z,13.40
2023-05-02T03:57:15.650Z,13.37
2023-05-02T03:59:17.298Z,13.38
2023-05-02T04:01:19.100Z,13.35
2023-05-02T04:03:21.131Z,13.35
2023-05-02T04:05:22.780Z,13.45
2023-05-02T04:07:25.896Z,13.51
2023-05-02T04:09:27.512Z,13.49
2023-05-02T04:11:29.153Z,13.38
2023-05-02T04:13:30.835Z,13.24
2023-05-02T04:15:32.577Z,13.18
2023-05-02T04:17:34.302Z,13.10
2023-05-02T04:19:35.866Z,13.07
2023-05-02T04:21:37.591Z,13.07
2023-05-02T04:23:39.612Z,13.03
2023-05-02T04:25:41.290Z,12.93
2023-05-02T04:27:43.234Z,12.84
2023-05-02T04:29:48.496Z,12.85
2023-05-02T04:31:51.266Z,12.91
2023-05-02T04:33:53.153Z,12.95
2023-05-02T04:35:54.757Z,13.03
2023-05-02T04:37:56.955Z,12.88
2023-05-02T04:39:58.703Z,12.65
2023-05-02T04:42:01.473Z,12.66
2023-05-02T04:44:03.288Z,12.69
2023-05-02T04:46:05.041Z,12.75
2023-05-02T04:48:06.771Z,12.98
2023-05-02T04:50:09.256Z,13.18
2023-05-02T04:52:11.037Z,13.31
2023-05-02T04:54:12.952Z,13.42
2023-05-02T04:56:14.563Z,13.54
2023-05-02T04:58:16.376Z,13.59
2023-05-02T05:00:18.169Z,13.59
2023-05-02T05:02:19.928Z,13.44
2023-05-02T05:04:21.741Z,13.49
2023-05-02T05:06:24.380Z,13.61
2023-05-02T05:08:26.103Z,13.57
2023-05-02T05:10:27.702Z,13.58
2023-05-02T05:12:29.329Z,13.47
2023-05-02T05:14:31.516Z,13.51
2023-05-02T05:16:33.521Z,13.45
2023-05-02T05:18:44.351Z,13.46
2023-05-02T05:20:45.898Z,13.42
2023-05-02T05:22:47.532Z,13.55
2023-05-02T05:24:53.710Z,13.63
2023-05-02T05:26:55.278Z,13.71
2023-05-02T05:28:56.873Z,13.54
2023-05-02T05:30:58.492Z,13.60
2023-05-02T05:33:00.463Z,13.65
2023-05-02T05:35:02.438Z,13.75
2023-05-02T05:37:04.065Z,13.77
2023-05-02T05:39:05.673Z,13.84
2023-05-02T05:41:11.144Z,14.01
2023-05-02T05:43:13.318Z,14.12
2023-05-02T05:45:16.456Z,14.18
2023-05-02T05:47:24.146Z,14.14
2023-05-02T05:49:26.140Z,14.04
2023-05-02T05:51:27.977Z,14.16
2023-05-02T05:53:29.567Z,14.26
2023-05-02T05:55:31.237Z,14.06
2023-05-02T05:57:32.886Z,14.01
2023-05-02T05:59:36.418Z,14.09
2023-05-02T06:01:38.255Z,14.10
2023-05-02T06:03:39.943Z,14.21
2023-05-02T06:05:41.709Z,14.16
2023-05-02T06:07:43.320Z,14.19
2023-05-02T06:09:45.026Z,14.24
2023-05-02T06:11:46.605Z,14.40
2023-05-02T06:13:48.242Z,14.54
2023-05-02T06:15:49.827Z,14.46
2023-05-02T06:17:52.162Z,14.36
2023-05-02T06:19:53.922Z,14.41
2023-05-02T06:21:55.692Z,14.48
2023-05-02T06:23:57.374Z,14.66
2023-05-02T06:26:00.763Z,14.77
2023-05-02T06:28:02.359Z,14.70
2023-05-02T06:30:04.391Z,14.83
2023-05-02T06:32:06.660Z,14.98
2023-05-02T06:34:08.396Z,15.04
2023-05-02T06:36:10.032Z,14.97
2023-05-02T06:38:11.616Z,14.86
2023-05-02T06:40:13.865Z,14.95
2023-05-02T06:42:15.597Z,15.18
2023-05-02T06:44:17.246Z,15.12
2023-05-02T06:46:20.432Z,15.10
2023-05-02T06:48:22.494Z,15.00
2023-05-02T06:50:24.116Z,15.07
2023-05-02T06:52:25.772Z,15.31
2023-05-02T06:54:27.418Z,15.52
2023-05-02T06:56:28.963Z,15.34
2023-05-02T06:58:31.000Z,15.45
2023-05-02T07:00:32.783Z,15.51
2023-05-02T07:02:34.487Z,15.45
2023-05-02T07:04:36.210Z,15.67
2023-05-02T07:06:37.999Z,15.89
2023-05-02T07:08:39.646Z,16.06
2023-05-02T07:10:41.400Z,16.22
2023-05-02T07:12:42.947Z,16.31
2023-05-02T07:14:46.853Z,16.18
2023-05-02T07:16:48.650Z,16.35
2023-05-02T07:18:50.403Z,16.32
2023-05-02T07:20:51.979Z,16.34
2023-05-02T07:22:53.960Z,16.40
2023-05-02T07:25:01.207Z,16.45
2023-05-02T07:27:03.376Z,16.27
2023-05-02T07:29:06.902Z,16.52
2023-05-02T07:31:08.506Z,16.62
2023-05-02T07:33:10.062Z,16.73
2023-05-02T07:35:11.703Z,16.69
2023-05-02T07:37:13.300Z,16.68
2023-05-02T07:39:15.050Z,16.69
2023-05-02T07:41:16.811Z,16.90
2023-05-02T07:43:18.412Z,17.02
2023-05-02T07:45:20.152Z,17.07
2023-05-02T07:47:21.862Z,17.24
2023-05-02T07:49:23.519Z,17.24
2023-05-02T07:51:26.352Z,17.30
2023-05-02T07:53:27.937Z,17.30
2023-05-02T07:55:30.726Z,17.36
2023-05-02T07:57:32.409Z,17.27
2023-05-02T07:59:34.148Z,17.45
2023-05-02T08:01:36.213Z,17.55
2023-05-02T08:03:38.053Z,17.71
2023-05-02T08:05:39.919Z,17.83
2023-05-02T08:07:41.587Z,17.78
2023-05-02T08:09:43.232Z,17.63
2023-05-02T08:11:44.895Z,17.63
2023-05-02T08:13:46.579Z,17.67
2023-05-02T08:15:48.352Z,17.78
2023-05-02T08:17:50.015Z,17.59
2023-05-02T08:19:51.683Z,17.48
2023-05-02T08:21:56.418Z,17.47
2023-05-02T08:23:58.915Z,17.24
2023-05-02T08:26:00.753Z,17.16
2023-05-02T08:28:02.314Z,17.14
2023-05-02T08:30:04.616Z,17.19
2023-05-02T08:32:06.533Z,17.30
2023-05-02T08:34:08.291Z,17.34
2023-05-02T08:36:14.374Z,17.34
2023-05-02T08:38:15.958Z,17.42
2023-05-02T08:40:24.696Z,17.67
2023-05-02T08:42:33.692Z,17.98
2023-05-02T08:44:35.368Z,18.30
2023-05-02T08:46:41.274Z,18.35
2023-05-02T08:48:44.491Z,18.27
2023-05-02T08:50:48.503Z,18.30
2023-05-02T08:52:50.844Z,18.37
2023-05-02T08:54:52.755Z,18.50
2023-05-02T08:56:54.840Z,18.14
2023-05-02T08:58:56.451Z,18.32
2023-05-02T09:01:01.466Z,17.84
2023-05-02T09:03:06.569Z,17.91
2023-05-02T09:05:08.580Z,18.17
2023-05-02T09:07:10.956Z,18.30
2023-05-02T09:09:12.594Z,18.37
2023-05-02T09:11:14.450Z,18.37
2023-05-02T09:13:32.219Z,18.47
2023-05-02T09:15:33.780Z,18.50
2023-05-02T09:17:47.039Z,18.56
2023-05-02T09:20:00.234Z,18.71
2023-05-02T09:22:02.217Z,18.74
2023-05-02T09:24:16.975Z,18.68
2023-05-02T09:26:22.204Z,18.60
2023-05-02T09:28:40.053Z,18.60
2023-05-02T09:30:41.672Z,18.55
2023-05-02T09:32:47.107Z,18.52
2023-05-02T09:35:07.768Z,18.70
2023-05-02T09:37:10.388Z,18.80
2023-05-02T09:39:16.891Z,18.58
2023-05-02T09:41:20.015Z,18.35
2023-05-02T09:43:21.904Z,17.90
2023-05-02T09:45:26.798Z,17.72
2023-05-02T09:47:28.469Z,17.85
2023-05-02T09:49:41.097Z,18.00
2023-05-02T09:51:44.150Z,18.23
2023-05-02T09:53:46.572Z,18.37
2023-05-02T09:55:48.705Z,18.53
2023-05-02T09:57:50.398Z,18.48
2023-05-02T10:00:00.892Z,18.58
2023-05-02T10:02:04.646Z,18.65
2023-05-02T10:04:06.893Z,18.73
2023-05-02T10:06:09.733Z,18.81
2023-05-02T10:08:12.506Z,18.77
2023-05-02T10:10:17.821Z,18.61
2023-05-02T10:12:22.556Z,18.68
2023-05-02T10:14:27.864Z,18.66
2023-05-02T10:16:31.603Z,18.57
2023-05-02T10:18:57.430Z,18.67
2023-05-02T10:21:01.948Z,18.96
2023-05-02T10:23:03.766Z,19.17
2023-05-02T10:25:06.278Z,19.16
2023-05-02T10:27:08.142Z,19.34
2023-05-02T10:29:10.888Z,19.62
2023-05-02T10:31:14.028Z,19.90
2023-05-02T10:33:16.665Z,19.54
2023-05-02T10:35:18.331Z,19.90
2023-05-02T10:37:20.170Z,20.24
2023-05-02T10:39:24.547Z,20.51
2023-05-02T10:41:28.102Z,20.62
2023-05-02T10:43:31.650Z,20.62
2023-05-02T10:45:35.276Z,20.63
2023-05-02T10:47:36.933Z,20.64
2023-05-02T10:49:56.863Z,20.78
2023-05-02T10:51:59.059Z,20.85
2023-05-02T10:54:25.562Z,21.06
2023-05-02T10:56:29.174Z,21.28
2023-05-02T10:58:31.444Z,21.49
2023-05-02T11:00:34.415Z,21.57
2023-05-02T11:02:38.010Z,21.66
2023-05-02T11:04:59.956Z,21.58
2023-05-02T11:07:02.342Z,21.56
2023-05-02T11:09:13.852Z,21.26
2023-05-02T11:11:43.608Z,21.05
2023-05-02T11:13:49.248Z,20.96
2023-05-02T11:15:51.360Z,21.02
2023-05-02T11:18:02.468Z,21.06
2023-05-02T11:20:07.690Z,21.06
2023-05-02T11:22:18.234Z,21.04
2023-05-02T11:24:49.247Z,21.00
2023-05-02T11:26:50.909Z,21.11
2023-05-02T11:28:52.865Z,21.31
2023-05-02T11:30:55.953Z,21.31
2023-05-02T11:32:59.416Z,21.27
2023-05-02T11:35:01.692Z,21.19
2023-05-02T11:37:14.635Z,20.92
2023-05-02T11:39:20.224Z,20.97
2023-05-02T11:41:21.795Z,20.95
2023-05-02T11:43:25.356Z,20.93
2023-05-02T11:45:34.324Z,20.75
2023-05-02T11:47:36.068Z,21.00
2023-05-02T11:49:37.822Z,20.71
2023-05-02T11:51:39.492Z,20.66
2023-05-02T11:53:41.685Z,20.88
2023-05-02T11:55:50.427Z,20.81
2023-05-02T11:57:52.170Z,20.94
2023-05-02T11:59:55.149Z,21.06
2023-05-02T12:01:58.178Z,21.13
2023-05-02T12:04:07.962Z,21.18
2023-05-02T12:06:15.256Z,21.32
2023-05-02T12:08:25.547Z,21.45
2023-05-02T12:10:36.982Z,21.50
2023-05-02T12:12:39.808Z,21.61
2023-05-02T12:14:41.507Z,21.78
2023-05-02T12:16:43.151Z,21.92
2023-05-02T12:18:45.325Z,21.93
2023-05-02T12:20:47.745Z,21.82
2023-05-02T12:22:49.584Z,21.78
2023-05-02T12:24:53.430Z,21.62
2023-05-02T12:27:14.139Z,21.67
2023-05-02T12:29:16.199Z,21.61
2023-05-02T12:31:18.038Z,21.53
2023-05-02T12:33:19.696Z,21.44
2023-05-02T12:35:23.248Z,21.48
2023-05-02T12:37:25.289Z,21.33
2023-05-02T12:39:36.623Z,21.16
2023-05-02T12:41:39.681Z,21.09
2023-05-02T12:43:48.787Z,20.76
2023-05-02T12:45:53.865Z,20.98
2023-05-02T12:47:56.000Z,21.25
2023-05-02T12:49:59.354Z,21.37
2023-05-02T12:52:01.360Z,21.56
2023-05-02T12:54:03.838Z,21.63
2023-05-02T12:56:06.052Z,21.75
2023-05-02T12:58:09.649Z,21.96
2023-05-02T13:00:11.868Z,22.08
2023-05-02T13:02:13.468Z,22.13
2023-05-02T13:04:15.151Z,22.09
2023-05-02T13:06:17.561Z,22.04
2023-05-02T13:08:19.424Z,22.04
2023-05-02T13:10:20.992Z,21.94
2023-05-02T13:12:22.635Z,21.91
2023-05-02T13:14:24.464Z,21.84
2023-05-02T13:16:26.193Z,21.74
2023-05-02T13:18:30.839Z,21.73
2023-05-02T13:20:32.507Z,21.78
2023-05-02T13:22:34.350Z,21.85
2023-05-02T13:24:36.106Z,21.83
2023-05-02T13:26:37.730Z,21.91
2023-05-02T13:28:39.283Z,21.89
2023-05-02T13:30:41.133Z,21.90
2023-05-02T13:32:42.884Z,21.98
2023-05-02T13:34:45.190Z,21.96
2023-05-02T13:36:46.773Z,21.70
2023-05-02T13:38:48.354Z,21.65
2023-05-02T13:40:50.268Z,21.80
2023-05-02T13:42:51.861Z,21.92
2023-05-02T13:44:53.544Z,22.02
2023-05-02T13:46:55.348Z,22.12
2023-05-02T13:48:56.943Z,22.11
2023-05-02T13:50:58.708Z,22.08
2023-05-02T13:53:00.341Z,22.06
2023-05-02T13:55:01.924Z,22.02
2023-05-02T13:57:04.286Z,22.08
2023-05-02T13:59:08.262Z,22.05
2023-05-02T14:01:10.790Z,22.11
2023-05-02T14:03:13.514Z,22.15
2023-05-02T14:05:15.575Z,22.16
2023-05-02T14:07:17.261Z,22.15
2023-05-02T14:09:18.868Z,22.25
2023-05-02T14:11:39.252Z,22.27
2023-05-02T14:13:40.933Z,22.22
2023-05-02T14:15:42.612Z,22.20
2023-05-02T14:17:44.225Z,22.21
2023-05-02T14:19:45.955Z,22.22
2023-05-02T14:21:47.730Z,22.32
2023-05-02T14:23:49.349Z,22.23
2023-05-02T14:25:50.961Z,22.19
2023-05-02T14:27:52.500Z,22.16
2023-05-02T14:29:54.138Z,22.15
2023-05-02T14:31:55.795Z,22.23
2023-05-02T14:33:57.415Z,22.23
2023-05-02T14:35:59.043Z,22.35
2023-05-02T14:38:01.328Z,22.47
2023-05-02T14:40:03.329Z,22.51
2023-05-02T14:42:05.803Z,22.62
2023-05-02T14:44:07.435Z,22.51
2023-05-02T14:46:09.102Z,22.52
2023-05-02T14:48:11.813Z,22.62
2023-05-02T14:50:13.494Z,22.59
2023-05-02T14:52:15.074Z,22.40
2023-05-02T14:54:16.969Z,22.43
2023-05-02T14:56:18.927Z,22.29
2023-05-02T14:58:20.972Z,22.40
2023-05-02T15:00:22.688Z,22.34
2023-05-02T15:02:24.438Z,22.25
2023-05-02T15:04:27.456Z,22.24
2023-05-02T15:06:31.657Z,22.06
2023-05-02T15:08:33.354Z,22.04
2023-05-02T15:10:39.023Z,22.21
2023-05-02T15:12:40.633Z,22.46
2023-05-02T15:14:42.348Z,22.62
2023-05-02T15:16:44.093Z,22.60
2023-05-02T15:18:45.833Z,22.55
2023-05-02T15:20:48.500Z,22.61
2023-05-02T15:22:50.037Z,22.41
2023-05-02T15:24:51.711Z,22.33
2023-05-02T15:26:53.414Z,22.22
2023-05-02T15:28:55.780Z,22.26
2023-05-02T15:30:57.338Z,22.15
2023-05-02T15:32:59.059Z,22.15
2023-05-02T15:35:00.770Z,22.17
2023-05-02T15:37:02.406Z,22.28
2023-05-02T15:39:04.835Z,22.22
2023-05-02T15:41:08.073Z,22.23
2023-05-02T15:43:09.648Z,22.12
2023-05-02T15:45:13.365Z,22.23
2023-05-02T15:47:14.949Z,22.16
2023-05-02T15:49:17.076Z,22.17
2023-05-02T15:51:18.900Z,22.14
2023-05-02T15:53:23.775Z,22.12
2023-05-02T15:55:25.387Z,22.19
2023-05-02T15:57:27.188Z,22.22
2023-05-02T15:59:28.833Z,22.21
2023-05-02T16:01:30.561Z,22.17
2023-05-02T16:03:34.238Z,22.08
2023-05-02T16:05:36.322Z,21.86
2023-05-02T16:07:38.761Z,21.76
2023-05-02T16:09:41.880Z,21.86
2023-05-02T16:11:44.438Z,21.73
2023-05-02T16:13:46.051Z,21.66
2023-05-02T16:15:48.473Z,21.66
2023-05-02T16:17:50.707Z,21.66
2023-05-02T16:19:52.481Z,21.79
2023-05-02T16:21:54.065Z,21.64
2023-05-02T16:23:55.724Z,21.31
2023-05-02T16:25:58.716Z,21.22
2023-05-02T16:28:00.333Z,21.17
2023-05-02T16:30:02.350Z,21.06
2023-05-02T16:32:04.479Z,21.00
2023-05-02T16:34:06.056Z,20.86
2023-05-02T16:36:07.894Z,20.69
2023-05-02T16:38:09.475Z,20.46
2023-05-02T16:40:12.302Z,20.50
2023-05-02T16:42:13.882Z,20.30
2023-05-02T16:44:15.499Z,20.22
2023-05-02T16:46:18.081Z,20.17
2023-05-02T16:48:22.908Z,20.06
2023-05-02T16:50:24.778Z,20.02
2023-05-02T16:52:26.652Z,20.02
2023-05-02T16:54:28.219Z,19.86
2023-05-02T16:56:30.138Z,19.68
2023-05-02T16:58:31.682Z,19.60
2023-05-02T17:00:34.115Z,19.56
2023-05-02T17:02:35.813Z,19.44
2023-05-02T17:04:37.698Z,19.34
2023-05-02T17:06:39.373Z,19.17
2023-05-02T17:08:41.081Z,19.12
2023-05-02T17:10:42.736Z,19.08
2023-05-02T17:12:44.497Z,18.99
2023-05-02T17:14:46.218Z,18.81
2023-05-02T17:16:48.466Z,18.75
2023-05-02T17:18:50.068Z,18.65
2023-05-02T17:20:51.605Z,18.66
2023-05-02T17:22:54.411Z,18.60
2023-05-02T17:24:56.346Z,18.52
2023-05-02T17:26:58.089Z,18.42
2023-05-02T17:28:59.705Z,18.35
2023-05-02T17:31:01.263Z,18.30
2023-05-02T17:33:02.932Z,18.24
2023-05-02T17:35:04.892Z,18.26
2023-05-02T17:37:07.437Z,18.18
2023-05-02T17:39:10.376Z,18.20
2023-05-02T17:41:12.279Z,18.21
2023-05-02T17:43:13.837Z,18.16
2023-05-02T17:45:15.562Z,18.14
2023-05-02T17:47:18.224Z,18.13
2023-05-02T17:49:19.838Z,18.10
2023-05-02T17:51:21.489Z,18.11
2023-05-02T17:53:23.194Z,17.99
2023-05-02T17:55:24.772Z,17.97
2023-05-02T17:57:26.893Z,17.92
2023-05-02T17:59:28.717Z,17.93
2023-05-02T18:01:30.892Z,17.91
2023-05-02T18:03:32.597Z,17.89
2023-05-02T18:05:38.726Z,17.83
2023-05-02T18:07:40.296Z,17.83
2023-05-02T18:09:41.955Z,17.85
2023-05-02T18:11:43.877Z,17.84
2023-05-02T18:13:45.861Z,17.79
2023-05-02T18:15:57.703Z,17.75
2023-05-02T18:17:59.366Z,17.72
2023-05-02T18:20:04.556Z,17.72
2023-05-02T18:22:07.329Z,17.60
2023-05-02T18:24:08.950Z,17.51
2023-05-02T18:26:13.654Z,17.49
2023-05-02T18:28:15.385Z,17.45
2023-05-02T18:30:17.048Z,17.44
2023-05-02T18:32:18.692Z,17.40
2023-05-02T18:34:20.335Z,17.39
2023-05-02T18:36:27.183Z,17.41
2023-05-02T18:38:28.823Z,17.28
2023-05-02T18:40:31.356Z,17.25
2023-05-02T18:42:33.069Z,17.17
2023-05-02T18:44:34.686Z,17.12
2023-05-02T18:46:36.371Z,17.08
2023-05-02T18:48:38.689Z,16.99
2023-05-02T18:50:40.467Z,16.95
2023-05-02T18:52:42.060Z,16.88
2023-05-02T18:54:43.719Z,16.82
2023-05-02T18:56:45.406Z,16.84
2023-05-02T18:58:47.580Z,16.82
2023-05-02T19:00:49.312Z,16.88
2023-05-02T19:02:54.160Z,16.90
2023-05-02T19:04:55.980Z,16.90
2023-05-02T19:06:57.560Z,16.94
2023-05-02T19:08:59.615Z,16.91
2023-05-02T19:11:01.196Z,16.87
2023-05-02T19:13:02.774Z,16.83
2023-05-02T19:15:06.726Z,16.79
2023-05-02T19:17:08.443Z,16.82
2023-05-02T19:19:10.311Z,16.81
2023-05-02T19:21:13.663Z,16.74
2023-05-02T19:23:20.510Z,16.71
2023-05-02T19:25:22.426Z,16.73
2023-05-02T19:27:24.005Z,16.77
2023-05-02T19:29:26.072Z,16.78
2023-05-02T19:31:28.154Z,16.79
2023-05-02T19:33:29.804Z,16.87
2023-05-02T19:35:34.024Z,16.82
2023-05-02T19:37:35.727Z,16.81
2023-05-02T19:39:37.328Z,16.74
2023-05-02T19:41:40.159Z,16.76
2023-05-02T19:43:41.754Z,16.72
2023-05-02T19:45:43.454Z,16.67
2023-05-02T19:47:45.654Z,16.63
2023-05-02T19:49:47.304Z,16.54
2023-05-02T19:51:49.357Z,16.50
2023-05-02T19:53:51.634Z,16.50
2023-05-02T19:55:53.557Z,16.49
2023-05-02T19:57:55.165Z,16.45
2023-05-02T19:59:56.817Z,16.50
2023-05-02T20:01:58.394Z,16.49
2023-05-02T20:04:00.373Z,16.41
2023-05-02T20:06:02.035Z,16.25
2023-05-02T20:08:03.712Z,16.27
2023-05-02T20:10:06.136Z,16.20
2023-05-02T20:12:07.802Z,16.17
2023-05-02T20:14:09.429Z,16.24
2023-05-02T20:16:11.322Z,16.29
2023-05-02T20:18:12.971Z,16.25
2023-05-02T20:20:14.719Z,16.18
2023-05-02T20:22:16.366Z,16.04
2023-05-02T20:24:17.990Z,16.04
2023-05-02T20:26:21.163Z,16.07
2023-05-02T20:28:22.774Z,16.04
2023-05-02T20:30:25.306Z,16.03
2023-05-02T20:32:27.035Z,15.97
2023-05-02T20:34:28.708Z,15.93
2023-05-02T20:36:31.103Z,15.86
2023-05-02T20:38:32.679Z,15.79
2023-05-02T20:40:34.856Z,15.76
2023-05-02T20:42:38.436Z,15.75
2023-05-02T20:44:40.065Z,15.70
2023-05-02T20:46:42.118Z,15.68
2023-05-02T20:48:43.801Z,15.70
2023-05-02T20:50:53.449Z,15.70
2023-05-02T20:52:55.331Z,15.67
2023-05-02T20:54:56.985Z,15.60
2023-05-02T20:56:58.610Z,15.47
2023-05-02T20:59:00.217Z,15.33
2023-05-02T21:01:01.957Z,15.34
2023-05-02T21:03:03.679Z,15.33
2023-05-02T21:05:05.642Z,15.40
2023-05-02T21:07:07.211Z,15.40
2023-05-02T21:09:09.536Z,15.37
2023-05-02T21:11:13.648Z,15.33
2023-05-02T21:13:15.376Z,15.39
2023-05-02T21:15:17.056Z,15.41
2023-05-02T21:17:18.622Z,15.30
2023-05-02T21:19:20.693Z,15.39
2023-05-02T21:21:22.948Z,15.40
2023-05-02T21:23:24.551Z,15.38
2023-05-02T21:25:26.095Z,15.43
2023-05-02T21:27:27.772Z,15.34
2023-05-02T21:29:29.360Z,15.34
2023-05-02T21:31:32.228Z,15.35
2023-05-02T21:33:33.940Z,15.34
2023-05-02T21:35:35.542Z,15.24
2023-05-02T21:37:37.173Z,15.15
2023-05-02T21:39:39.085Z,15.18
2023-05-02T21:41:40.744Z,15.05
2023-05-02T21:43:42.479Z,15.06
2023-05-02T21:45:47.551Z,15.02
2023-05-02T21:47:49.230Z,14.96
2023-05-02T21:49:50.842Z,15.03
2023-05-02T21:51:52.398Z,15.00
2023-05-02T21:53:54.145Z,14.95
2023-05-02T21:55:55.755Z,15.02
2023-05-02T21:57:57.817Z,15.02
2023-05-02T21:59:59.482Z,14.85
2023-05-02T22:02:01.124Z,14.85
2023-05-02T22:04:02.906Z,14.82
2023-05-02T22:06:06.694Z,14.78
2023-05-02T22:08:09.916Z,14.80
2023-05-02T22:10:11.975Z,14.80
2023-05-02T22:12:13.488Z,14.77
2023-05-02T22:14:15.119Z,14.63
2023-05-02T22:16:17.241Z,14.64
2023-05-02T22:18:18.952Z,14.56
2023-05-02T22:20:21.908Z,14.43
2023-05-02T22:22:23.516Z,14.41
2023-05-02T22:24:25.073Z,14.44
2023-05-02T22:26:26.691Z,14.42
2023-05-02T22:28:28.311Z,14.49
2023-05-02T22:30:29.980Z,14.48
2023-05-02T22:32:31.650Z,14.42
2023-05-02T22:34:33.291Z,14.51
2023-05-02T22:36:35.829Z,14.52
2023-05-02T22:38:39.904Z,14.50
2023-05-02T22:40:41.593Z,14.43
2023-05-02T22:42:43.314Z,14.39
2023-05-02T22:44:53.987Z,14.33
2023-05-02T22:46:56.600Z,14.39
2023-05-02T22:48:58.224Z,14.40
2023-05-02T22:50:59.774Z,14.31
2023-05-02T22:53:03.932Z,14.26
2023-05-02T22:55:09.264Z,14.20
2023-05-02T22:57:11.048Z,14.27
2023-05-02T22:59:12.677Z,14.27
2023-05-02T23:01:14.398Z,14.23
2023-05-02T23:03:16.210Z,14.20
2023-05-02T23:05:17.794Z,14.11
2023-05-02T23:07:20.105Z,14.14
2023-05-02T23:09:21.749Z,14.22
2023-05-02T23:11:23.398Z,14.20
2023-05-02T23:13:26.092Z,14.20
2023-05-02T23:15:27.834Z,14.14
2023-05-02T23:17:29.481Z,14.13
2023-05-02T23:19:31.124Z,14.23
2023-05-02T23:21:32.752Z,14.26
2023-05-02T23:23:34.320Z,14.22
2023-05-02T23:25:36.711Z,14.26
2023-05-02T23:27:38.326Z,14.11
2023-05-02T23:29:39.910Z,14.10
2023-05-02T23:31:41.578Z,13.92
2023-05-02T23:33:43.342Z,13.85
2023-05-02T23:35:44.967Z,13.81
2023-05-02T23:37:46.620Z,13.80
2023-05-02T23:39:48.977Z,13.77
2023-05-02T23:41:50.694Z,13.75
2023-05-02T23:43:52.278Z,13.77
2023-05-02T23:45:53.948Z,13.65
2023-05-02T23:47:55.895Z,13.62
2023-05-02T23:49:57.525Z,13.55
2023-05-02T23:51:59.132Z,13.58
2023-05-02T23:54:01.535Z,13.59
2023-05-02T23:56:03.227Z,13.59
2023-05-02T23:58:04.800Z,13.62
